createdAt,value
2018-04-16T00:02:11.011Z,76.89
2018-04-16T00:04:39.145Z,77.03
2018-04-16T00:07:07.275Z,77.44
2018-04-16T00:09:35.401Z,77.46
2018-04-16T00:12:03.555Z,77.46
2018-04-16T00:14:31.678Z,77.54
2018-04-16T00:16:59.775Z,77.68
2018-04-16T00:19:27.939Z,77.69
2018-04-16T00:21:56.080Z,77.20
2018-04-16T00:24:24.257Z,77.41
2018-04-16T00:26:52.416Z,77.96
2018-04-16T00:29:20.535Z,77.24
2018-04-16T00:31:54.494Z,77.22
2018-04-16T00:34:28.249Z,77.54
2018-04-16T00:37:02.345Z,77.20
2018-04-16T00:39:35.945Z,77.28
2018-04-16T00:42:09.679Z,77.07
2018-04-16T00:44:43.334Z,76.93
2018-04-16T00:47:17.054Z,77.51
2018-04-16T00:49:50.868Z,77.36
2018-04-16T00:52:24.567Z,77.48
2018-04-16T00:54:58.399Z,77.99
2018-04-16T00:57:32.088Z,77.35
2018-04-16T01:00:05.878Z,77.54
2018-04-16T01:02:39.516Z,78.27
2018-04-16T01:05:13.259Z,77.69
2018-04-16T01:07:46.940Z,78.07
2018-04-16T01:10:20.602Z,77.67
2018-04-16T01:12:54.391Z,77.89
2018-04-16T01:15:28.104Z,77.68
2018-04-16T01:18:01.776Z,78.15
2018-04-16T01:20:35.599Z,78.14
2018-04-16T01:23:09.427Z,78.33
2018-04-16T01:25:43.135Z,78.38
2018-04-16T01:28:16.702Z,78.78
2018-04-16T01:30:50.501Z,78.72
2018-04-16T01:33:24.434Z,78.58
2018-04-16T01:35:57.939Z,78.30
2018-04-16T01:38:31.631Z,78.38
2018-04-16T01:41:05.425Z,78.73
2018-04-16T01:43:39.274Z,78.52
2018-04-16T01:46:12.951Z,78.52
2018-04-16T01:51:54.860Z,78.65
2018-04-16T01:54:28.664Z,78.25
2018-04-16T01:57:02.327Z,78.54
2018-04-16T01:59:36.157Z,78.62
2018-04-16T02:02:09.837Z,78.51
2018-04-16T02:04:43.581Z,78.67
2018-04-16T02:07:17.378Z,78.81
2018-04-16T02:12:55.369Z,79.04
2018-04-16T02:15:29.215Z,79.22
2018-04-16T02:18:02.920Z,79.01
2018-04-16T02:20:36.743Z,79.28
2018-04-16T02:23:10.412Z,79.03
2018-04-16T02:25:44.141Z,79.02
2018-04-16T02:28:17.805Z,78.70
2018-04-16T02:30:51.845Z,78.92
2018-04-16T02:33:25.464Z,79.06
2018-04-16T02:35:59.220Z,79.84
2018-04-16T02:38:32.819Z,79.86
2018-04-16T02:41:06.487Z,79.90
2018-04-16T02:46:43.345Z,79.81
2018-04-16T02:49:17.183Z,79.88
2018-04-16T02:51:50.887Z,80.36
2018-04-16T02:54:24.554Z,80.00
2018-04-16T02:56:58.477Z,79.75
2018-04-16T02:59:32.249Z,80.20
2018-04-16T03:02:06.049Z,80.29
2018-04-16T03:04:39.843Z,80.47
2018-04-16T03:07:13.510Z,80.27
2018-04-16T03:09:47.187Z,79.86
2018-04-16T03:12:20.925Z,80.30
2018-04-16T03:14:54.735Z,80.23
2018-04-16T03:17:28.518Z,80.17
2018-04-16T03:20:02.204Z,80.23
2018-04-16T03:25:41.288Z,79.99
2018-04-16T03:28:14.918Z,80.40
2018-04-16T03:30:48.750Z,79.76
2018-04-16T03:33:22.595Z,79.70
2018-04-16T03:35:56.208Z,79.83
2018-04-16T03:38:29.942Z,80.14
2018-04-16T03:41:03.571Z,80.29
2018-04-16T03:43:37.355Z,80.45
2018-04-16T03:46:11.129Z,80.12
2018-04-16T03:48:44.668Z,79.47
2018-04-16T03:51:14.729Z,79.88
2018-04-16T03:53:47.664Z,79.72
2018-04-16T03:56:15.785Z,80.16
2018-04-16T03:58:43.905Z,80.35
2018-04-16T04:01:12.033Z,80.50
2018-04-16T04:03:40.135Z,80.15
2018-04-16T04:06:08.256Z,80.00
2018-04-16T04:08:36.378Z,80.40
2018-04-16T04:11:04.494Z,79.81
2018-04-16T04:13:32.637Z,79.96
2018-04-16T04:16:00.776Z,79.55
2018-04-16T04:18:28.906Z,79.22
2018-04-16T04:20:57.022Z,79.67
2018-04-16T04:23:36.898Z,79.26
2018-04-16T04:26:16.847Z,78.95
2018-04-16T04:28:56.848Z,78.83
2018-04-16T04:31:24.986Z,79.20
2018-04-16T04:33:53.120Z,78.84
2018-04-16T04:36:21.245Z,79.29
2018-04-16T04:38:49.394Z,78.83
2018-04-16T04:41:17.502Z,78.92
2018-04-16T04:43:45.633Z,79.03
2018-04-16T04:46:13.891Z,78.92
2018-04-16T04:48:42.012Z,78.90
2018-04-16T04:51:10.151Z,78.74
2018-04-16T04:53:38.273Z,78.88
2018-04-16T04:56:06.407Z,78.94
2018-04-16T04:58:34.538Z,79.05
2018-04-16T05:01:02.666Z,79.28
2018-04-16T05:03:30.797Z,79.29
2018-04-16T05:05:58.914Z,78.70
2018-04-16T05:08:27.040Z,79.94
2018-04-16T05:10:55.181Z,79.87
2018-04-16T05:13:23.320Z,79.58
2018-04-16T05:15:51.459Z,79.73
2018-04-16T05:18:19.573Z,79.23
2018-04-16T05:20:47.707Z,79.14
2018-04-16T05:23:15.848Z,79.46
2018-04-16T05:25:47.137Z,79.50
2018-04-16T05:28:15.267Z,79.16
2018-04-16T05:30:43.417Z,78.73
2018-04-16T05:33:11.580Z,79.62
2018-04-16T05:35:39.707Z,79.14
2018-04-16T05:38:07.834Z,79.05
2018-04-16T05:40:35.974Z,79.52
2018-04-16T05:43:04.120Z,79.30
2018-04-16T05:45:32.245Z,78.78
2018-04-16T05:48:00.383Z,78.00
2018-04-16T05:50:28.566Z,78.14
2018-04-16T05:52:56.753Z,78.08
2018-04-16T05:55:24.895Z,77.84
2018-04-16T05:57:53.033Z,77.56
2018-04-16T06:00:21.247Z,77.35
2018-04-16T06:02:49.384Z,76.97
2018-04-16T06:05:17.543Z,77.12
2018-04-16T06:07:45.710Z,77.25
2018-04-16T06:10:13.840Z,77.44
2018-04-16T06:12:42.126Z,76.93
2018-04-16T06:15:10.266Z,77.21
2018-04-16T06:17:38.388Z,77.69
2018-04-16T06:20:06.758Z,77.56
2018-04-16T06:22:34.874Z,78.36
2018-04-16T06:25:03.023Z,78.60
2018-04-16T06:27:31.247Z,78.29
2018-04-16T06:29:59.363Z,76.58
2018-04-16T06:32:27.504Z,76.40
2018-04-16T06:34:55.647Z,76.60
2018-04-16T06:37:23.885Z,76.41
2018-04-16T06:39:52.040Z,76.25
2018-04-16T06:42:20.253Z,76.21
2018-04-16T06:44:48.343Z,74.95
2018-04-16T06:47:16.489Z,74.96
2018-04-16T06:49:44.865Z,75.92
2018-04-16T06:52:12.983Z,75.30
2018-04-16T06:54:41.119Z,74.72
2018-04-16T06:57:09.293Z,74.17
2018-04-16T06:59:37.421Z,73.35
2018-04-16T07:02:05.561Z,72.62
2018-04-16T07:04:33.715Z,73.44
2018-04-16T07:07:01.838Z,74.28
2018-04-16T07:09:30.010Z,74.05
2018-04-16T07:11:58.176Z,73.55
2018-04-16T07:14:26.314Z,73.40
2018-04-16T07:16:54.476Z,71.63
2018-04-16T07:19:22.628Z,71.21
2018-04-16T07:21:50.748Z,71.71
2018-04-16T07:24:18.894Z,72.25
2018-04-16T07:26:47.034Z,70.91
2018-04-16T07:29:15.187Z,70.41
2018-04-16T07:31:43.317Z,70.68
2018-04-16T07:34:11.461Z,71.28
2018-04-16T07:36:39.575Z,70.97
2018-04-16T07:39:07.713Z,70.83
2018-04-16T07:41:36.313Z,70.35
2018-04-16T07:44:04.428Z,70.30
2018-04-16T07:46:32.566Z,70.45
2018-04-16T07:49:00.717Z,70.30
2018-04-16T07:51:28.887Z,71.09
2018-04-16T07:53:56.988Z,70.92
2018-04-16T07:56:25.120Z,70.62
2018-04-16T07:58:53.356Z,70.69
2018-04-16T08:01:21.503Z,71.10
2018-04-16T08:03:49.605Z,70.74
2018-04-16T08:06:17.716Z,71.04
2018-04-16T08:08:45.849Z,71.66
2018-04-16T08:11:14.009Z,70.80
2018-04-16T08:13:42.155Z,70.23
2018-04-16T08:16:10.288Z,69.79
2018-04-16T08:18:38.428Z,70.38
2018-04-16T08:21:06.576Z,71.05
2018-04-16T08:23:34.719Z,71.27
2018-04-16T08:26:02.861Z,71.60
2018-04-16T08:28:30.979Z,70.75
2018-04-16T08:30:59.114Z,71.17
2018-04-16T08:33:27.474Z,70.15
2018-04-16T08:35:55.587Z,70.85
2018-04-16T08:38:23.717Z,70.22
2018-04-16T08:40:51.878Z,69.71
2018-04-16T08:43:20.022Z,69.53
2018-04-16T08:45:48.158Z,70.50
2018-04-16T08:48:16.305Z,70.70
2018-04-16T08:50:44.463Z,70.16
2018-04-16T08:53:12.582Z,69.34
2018-04-16T08:55:40.713Z,68.61
2018-04-16T08:58:08.855Z,68.03
2018-04-16T09:00:37.009Z,67.30
2018-04-16T09:03:05.105Z,67.06
2018-04-16T09:05:33.239Z,67.01
2018-04-16T09:08:01.375Z,68.36
2018-04-16T09:10:29.518Z,67.75
2018-04-16T09:12:57.667Z,67.32
2018-04-16T09:15:26.617Z,65.96
2018-04-16T09:17:54.760Z,65.34
2018-04-16T09:20:22.905Z,64.91
2018-04-16T09:22:51.061Z,64.27
2018-04-16T09:25:19.242Z,65.21
2018-04-16T09:27:47.359Z,65.29
2018-04-16T09:30:15.494Z,66.75
2018-04-16T09:32:43.650Z,67.11
2018-04-16T09:35:11.787Z,67.64
2018-04-16T09:37:39.935Z,66.97
2018-04-16T09:40:08.100Z,65.48
2018-04-16T09:42:36.212Z,65.03
2018-04-16T09:45:04.333Z,63.29
2018-04-16T09:47:32.501Z,64.35
2018-04-16T09:50:00.627Z,64.95
2018-04-16T09:52:28.759Z,66.11
2018-04-16T09:54:57.031Z,66.02
2018-04-16T09:57:25.159Z,65.64
2018-04-16T09:59:53.294Z,66.10
2018-04-16T10:02:25.412Z,65.75
2018-04-16T10:04:53.550Z,63.73
2018-04-16T10:07:21.698Z,63.99
2018-04-16T10:09:50.003Z,62.42
2018-04-16T10:12:18.120Z,62.51
2018-04-16T10:14:46.235Z,63.55
2018-04-16T10:17:14.401Z,63.89
2018-04-16T10:19:42.540Z,62.56
2018-04-16T10:22:10.662Z,61.28
2018-04-16T10:24:38.814Z,61.78
2018-04-16T10:27:06.936Z,61.43
2018-04-16T10:29:35.054Z,60.74
2018-04-16T10:32:03.199Z,59.77
2018-04-16T10:34:31.325Z,59.42
2018-04-16T10:36:59.551Z,58.17
2018-04-16T10:39:27.690Z,56.25
2018-04-16T10:41:55.796Z,56.22
2018-04-16T10:44:23.929Z,56.11
2018-04-16T10:46:52.073Z,55.63
2018-04-16T10:49:20.220Z,55.68
2018-04-16T10:51:48.379Z,57.55
2018-04-16T10:54:16.535Z,58.81
2018-04-16T10:56:44.720Z,56.79
2018-04-16T10:59:12.862Z,57.02
2018-04-16T11:01:40.993Z,56.51
2018-04-16T11:04:09.123Z,57.66
2018-04-16T11:06:37.239Z,57.99
2018-04-16T11:09:06.099Z,57.00
2018-04-16T11:11:34.258Z,55.00
2018-04-16T11:14:02.387Z,55.68
2018-04-16T11:16:30.523Z,54.40
2018-04-16T11:18:58.645Z,53.97
2018-04-16T11:21:26.767Z,53.40
2018-04-16T11:23:54.914Z,52.80
2018-04-16T11:26:23.099Z,54.40
2018-04-16T11:28:51.207Z,53.83
2018-04-16T11:31:19.363Z,53.80
2018-04-16T11:33:47.476Z,53.47
2018-04-16T11:36:15.583Z,54.68
2018-04-16T11:38:43.740Z,55.60
2018-04-16T11:41:11.857Z,55.43
2018-04-16T11:43:39.981Z,54.94
2018-04-16T11:46:08.124Z,53.46
2018-04-16T11:48:36.247Z,52.02
2018-04-16T11:51:04.363Z,53.41
2018-04-16T11:53:32.507Z,53.08
2018-04-16T11:56:00.620Z,52.33
2018-04-16T11:58:28.836Z,52.44
2018-04-16T12:00:56.984Z,51.22
2018-04-16T12:03:25.090Z,51.58
2018-04-16T12:05:53.238Z,51.15
2018-04-16T12:08:21.377Z,50.77
2018-04-16T12:10:49.523Z,50.66
2018-04-16T12:13:17.654Z,50.83
2018-04-16T12:15:45.800Z,49.85
2018-04-16T12:18:13.937Z,51.27
2018-04-16T12:20:42.066Z,52.79
2018-04-16T12:23:10.205Z,52.02
2018-04-16T12:25:38.345Z,52.68
2018-04-16T12:28:06.503Z,52.80
2018-04-16T12:30:34.635Z,51.64
2018-04-16T12:33:02.787Z,50.53
2018-04-16T12:35:30.919Z,50.14
2018-04-16T12:37:59.057Z,49.37
2018-04-16T12:40:27.185Z,48.70
2018-04-16T12:42:55.304Z,48.15
2018-04-16T12:45:23.439Z,48.93
2018-04-16T12:47:51.566Z,50.21
2018-04-16T12:50:19.690Z,49.95
2018-04-16T12:52:47.852Z,49.00
2018-04-16T12:55:15.966Z,52.57
2018-04-16T12:57:44.104Z,47.31
2018-04-16T13:00:12.270Z,47.77
2018-04-16T13:02:40.343Z,48.04
2018-04-16T13:05:08.447Z,48.49
2018-04-16T13:07:36.586Z,48.99
2018-04-16T13:10:04.717Z,49.59
2018-04-16T13:12:32.841Z,49.30
2018-04-16T13:15:01.008Z,47.52
2018-04-16T13:17:29.148Z,46.30
2018-04-16T13:19:57.285Z,46.76
2018-04-16T13:22:25.638Z,45.61
2018-04-16T13:24:53.775Z,46.75
2018-04-16T13:27:22.229Z,46.88
2018-04-16T13:29:50.344Z,46.70
2018-04-16T13:32:18.473Z,47.82
2018-04-16T13:34:46.607Z,46.58
2018-04-16T13:37:14.773Z,46.81
2018-04-16T13:39:43.547Z,47.43
2018-04-16T13:42:12.668Z,46.94
2018-04-16T13:44:40.824Z,46.89
2018-04-16T13:47:08.941Z,47.95
2018-04-16T13:49:37.062Z,47.82
2018-04-16T13:52:05.218Z,47.91
2018-04-16T13:54:33.334Z,47.31
2018-04-16T13:57:01.473Z,46.84
2018-04-16T13:59:29.605Z,47.47
2018-04-16T14:01:57.750Z,47.33
2018-04-16T14:04:25.872Z,46.90
2018-04-16T14:06:54.046Z,46.96
2018-04-16T14:09:22.155Z,47.69
2018-04-16T14:11:50.296Z,48.01
2018-04-16T14:14:18.434Z,47.78
2018-04-16T14:16:46.552Z,48.00
2018-04-16T14:19:14.703Z,47.77
2018-04-16T14:21:42.842Z,46.43
2018-04-16T14:24:10.969Z,46.23
2018-04-16T14:26:39.098Z,45.35
2018-04-16T14:29:07.248Z,45.65
2018-04-16T14:31:35.358Z,45.51
2018-04-16T14:34:03.496Z,45.21
2018-04-16T14:36:31.623Z,45.42
2018-04-16T14:38:59.765Z,44.09
2018-04-16T14:41:27.876Z,45.15
2018-04-16T14:43:56.046Z,45.40
2018-04-16T14:46:24.204Z,44.97
2018-04-16T14:48:52.331Z,45.78
2018-04-16T14:51:20.447Z,46.29
2018-04-16T14:53:48.583Z,45.16
2018-04-16T14:56:16.691Z,45.68
2018-04-16T14:58:44.840Z,45.90
2018-04-16T15:01:12.969Z,45.19
2018-04-16T15:03:41.103Z,45.48
2018-04-16T15:06:09.240Z,44.94
2018-04-16T15:08:37.380Z,44.33
2018-04-16T15:11:05.769Z,44.13
2018-04-16T15:13:33.908Z,44.87
2018-04-16T15:16:02.013Z,44.45
2018-04-16T15:18:30.187Z,45.01
2018-04-16T15:20:58.333Z,45.19
2018-04-16T15:23:26.458Z,45.01
2018-04-16T15:25:54.662Z,44.03
2018-04-16T15:28:22.778Z,43.25
2018-04-16T15:30:50.921Z,44.01
2018-04-16T15:33:19.066Z,44.64
2018-04-16T15:35:47.215Z,44.12
2018-04-16T15:38:15.340Z,43.92
2018-04-16T15:40:43.460Z,43.67
2018-04-16T15:43:11.599Z,43.98
2018-04-16T15:45:39.748Z,44.56
2018-04-16T15:48:07.855Z,44.05
2018-04-16T15:50:35.982Z,44.31
2018-04-16T15:53:04.118Z,45.08
2018-04-16T15:55:32.252Z,44.63
2018-04-16T15:58:00.390Z,44.07
2018-04-16T16:00:28.495Z,44.25
2018-04-16T16:02:56.619Z,44.17
2018-04-16T16:05:24.753Z,44.18
2018-04-16T16:07:52.869Z,44.30
2018-04-16T16:10:20.988Z,43.75
2018-04-16T16:12:49.130Z,43.91
2018-04-16T16:15:17.253Z,44.12
2018-04-16T16:17:45.367Z,44.67
2018-04-16T16:20:13.749Z,44.53
2018-04-16T16:22:41.858Z,44.52
2018-04-16T16:25:09.991Z,45.45
2018-04-16T16:27:38.134Z,44.84
2018-04-16T16:30:06.258Z,45.37
2018-04-16T16:32:34.402Z,45.18
2018-04-16T16:35:02.550Z,47.01
2018-04-16T16:37:30.686Z,47.03
2018-04-16T16:39:58.838Z,46.35
2018-04-16T16:42:26.968Z,45.87
2018-04-16T16:44:55.350Z,45.31
2018-04-16T16:47:23.491Z,45.69
2018-04-16T16:49:51.699Z,45.41
2018-04-16T16:52:19.813Z,45.62
2018-04-16T16:54:47.959Z,45.56
2018-04-16T16:57:16.326Z,45.60
2018-04-16T16:59:44.455Z,44.88
2018-04-16T17:02:13.419Z,45.77
2018-04-16T17:04:42.188Z,46.06
2018-04-16T17:07:10.342Z,46.31
2018-04-16T17:09:38.464Z,45.76
2018-04-16T17:12:07.323Z,46.55
2018-04-16T17:14:35.914Z,46.61
2018-04-16T17:17:05.334Z,46.42
2018-04-16T17:19:34.526Z,47.72
2018-04-16T17:22:05.463Z,48.08
2018-04-16T17:24:33.691Z,48.77
2018-04-16T17:27:01.834Z,48.27
2018-04-16T17:29:29.979Z,48.80
2018-04-16T17:31:58.092Z,48.17
2018-04-16T17:34:26.239Z,48.59
2018-04-16T17:36:54.468Z,48.49
2018-04-16T17:39:22.623Z,47.81
2018-04-16T17:41:50.785Z,48.22
2018-04-16T17:44:18.902Z,48.93
2018-04-16T17:46:47.048Z,49.70
2018-04-16T17:49:15.209Z,49.74
2018-04-16T17:51:43.339Z,49.95
2018-04-16T17:54:11.474Z,50.87
2018-04-16T17:56:39.623Z,50.67
2018-04-16T17:59:07.748Z,50.86
2018-04-16T18:01:36.260Z,50.50
2018-04-16T18:04:04.393Z,50.90
2018-04-16T18:06:36.062Z,51.26
2018-04-16T18:09:04.209Z,51.64
2018-04-16T18:11:32.345Z,51.32
2018-04-16T18:14:00.499Z,51.33
2018-04-16T18:16:28.677Z,51.41
2018-04-16T18:18:56.785Z,52.50
2018-04-16T18:21:24.900Z,51.82
2018-04-16T18:23:53.068Z,52.06
2018-04-16T18:26:21.212Z,52.67
2018-04-16T18:28:49.355Z,52.00
2018-04-16T18:31:17.500Z,51.85
2018-04-16T18:33:45.654Z,51.71
2018-04-16T18:36:13.801Z,52.78
2018-04-16T18:38:41.928Z,52.53
2018-04-16T18:41:10.061Z,52.66
2018-04-16T18:43:38.235Z,53.54
2018-04-16T18:46:06.409Z,54.31
2018-04-16T18:48:34.569Z,54.44
2018-04-16T18:51:02.693Z,54.81
2018-04-16T18:53:30.850Z,54.86
2018-04-16T18:55:58.990Z,55.02
2018-04-16T18:58:27.141Z,54.82
2018-04-16T19:00:58.373Z,55.01
2018-04-16T19:03:26.535Z,55.72
2018-04-16T19:05:54.661Z,56.73
2018-04-16T19:08:22.806Z,56.99
2018-04-16T19:10:50.971Z,57.16
2018-04-16T19:13:19.081Z,57.38
2018-04-16T19:15:47.460Z,57.82
2018-04-16T19:18:15.544Z,57.80
2018-04-16T19:20:49.263Z,58.39
2018-04-16T19:23:17.392Z,58.51
2018-04-16T19:25:45.502Z,58.41
2018-04-16T19:28:16.629Z,58.76
2018-04-16T19:30:44.777Z,58.91
2018-04-16T19:33:18.535Z,59.56
2018-04-16T19:35:46.694Z,59.27
2018-04-16T19:38:14.827Z,59.45
2018-04-16T19:40:42.943Z,59.56
2018-04-16T19:43:11.106Z,59.37
2018-04-16T19:45:39.211Z,59.58
2018-04-16T19:48:07.340Z,60.75
2018-04-16T19:50:35.536Z,60.56
2018-04-16T19:53:03.653Z,60.92
2018-04-16T19:55:37.370Z,60.30
2018-04-16T19:58:11.173Z,60.82
2018-04-16T20:00:39.317Z,60.67
2018-04-16T20:03:13.151Z,60.70
2018-04-16T20:05:41.276Z,61.07
2018-04-16T20:08:09.385Z,61.67
2018-04-16T20:10:37.525Z,61.63
2018-04-16T20:13:05.674Z,61.64
2018-04-16T20:15:33.803Z,61.98
2018-04-16T20:18:01.910Z,61.95
2018-04-16T20:20:30.048Z,61.77
2018-04-16T20:22:58.174Z,61.95
2018-04-16T20:25:26.301Z,62.92
2018-04-16T20:27:54.641Z,62.79
2018-04-16T20:30:22.781Z,63.43
2018-04-16T20:32:50.906Z,63.51
2018-04-16T20:35:19.076Z,63.63
2018-04-16T20:37:47.194Z,63.60
2018-04-16T20:40:15.318Z,63.87
2018-04-16T20:42:43.478Z,64.07
2018-04-16T20:45:11.665Z,64.13
2018-04-16T20:47:39.808Z,63.86
2018-04-16T20:50:08.052Z,64.50
2018-04-16T20:52:36.230Z,64.31
2018-04-16T20:55:04.355Z,64.58
2018-04-16T20:57:32.512Z,64.67
2018-04-16T21:00:00.630Z,65.36
2018-04-16T21:02:28.739Z,65.78
2018-04-16T21:04:56.913Z,66.05
2018-04-16T21:07:25.009Z,66.13
2018-04-16T21:09:53.144Z,66.65
2018-04-16T21:12:23.300Z,66.87
2018-04-16T21:14:51.434Z,66.83
2018-04-16T21:17:19.538Z,66.88
2018-04-16T21:19:47.716Z,67.00
2018-04-16T21:22:15.852Z,67.03
2018-04-16T21:24:43.991Z,67.20
2018-04-16T21:27:12.143Z,67.58
2018-04-16T21:29:40.257Z,67.57
2018-04-16T21:32:08.401Z,67.14
2018-04-16T21:34:36.536Z,66.95
2018-04-16T21:37:04.655Z,67.50
2018-04-16T21:39:32.779Z,67.39
2018-04-16T21:42:00.915Z,67.83
2018-04-16T21:44:29.075Z,67.75
2018-04-16T21:46:57.186Z,67.41
2018-04-16T21:49:25.329Z,68.02
2018-04-16T21:51:53.477Z,68.55
2018-04-16T21:54:21.593Z,68.76
2018-04-16T21:56:49.790Z,68.46
2018-04-16T21:59:17.875Z,68.67
2018-04-16T22:01:45.993Z,69.11
2018-04-16T22:04:14.302Z,68.77
2018-04-16T22:06:45.402Z,68.99
2018-04-16T22:09:13.518Z,69.16
2018-04-16T22:11:41.658Z,69.43
2018-04-16T22:14:09.795Z,69.47
2018-04-16T22:16:37.915Z,69.59
2018-04-16T22:19:06.084Z,69.38
2018-04-16T22:21:34.228Z,69.45
2018-04-16T22:24:02.343Z,69.40
2018-04-16T22:26:30.495Z,69.77
2018-04-16T22:28:58.621Z,69.63
2018-04-16T22:31:26.751Z,69.64
2018-04-16T22:33:54.912Z,69.89
2018-04-16T22:36:23.013Z,70.09
2018-04-16T22:38:54.123Z,70.23
2018-04-16T22:41:22.427Z,70.04
2018-04-16T22:43:50.557Z,69.79
2018-04-16T22:46:18.676Z,69.82
2018-04-16T22:48:49.983Z,69.89
2018-04-16T22:51:18.117Z,70.00
2018-04-16T22:53:46.224Z,70.08
2018-04-16T22:56:14.347Z,69.92
2018-04-16T22:58:42.497Z,69.85
2018-04-16T23:01:10.745Z,70.00
2018-04-16T23:03:38.869Z,69.79
2018-04-16T23:06:06.977Z,70.64
2018-04-16T23:08:35.109Z,70.97
2018-04-16T23:11:03.271Z,71.56
2018-04-16T23:13:31.403Z,71.83
2018-04-16T23:15:59.531Z,71.89
2018-04-16T23:18:27.677Z,71.63
2018-04-16T23:20:55.837Z,71.64
2018-04-16T23:23:23.939Z,71.34
2018-04-16T23:25:52.317Z,71.70
2018-04-16T23:28:20.457Z,71.38
2018-04-16T23:30:48.562Z,71.68
2018-04-16T23:33:16.720Z,71.98
2018-04-16T23:35:44.823Z,71.74
2018-04-16T23:38:12.941Z,72.12
2018-04-16T23:40:41.083Z,72.51
2018-04-16T23:43:09.216Z,72.87
2018-04-16T23:45:37.364Z,72.58
2018-04-16T23:48:05.705Z,72.93
2018-04-16T23:50:33.885Z,72.87
2018-04-16T23:53:01.952Z,73.07
2018-04-16T23:55:30.111Z,73.55
2018-04-16T23:57:58.256Z,73.32
